Time;durP1;ratioP1;P1;durP2;ratioP2;P2;SDS_P1;SDS_P2;PMS_P1;PMS_P2;Temp;Humidity;BMP_temperature;BMP_pressure;BME280_temperature;BME280_humidity;BME280_pressure;Samples;Min_cycle;Max_cycle;Signal;HPM_P1;HPM_P2
2022/03/01 00:00:25;;;;;;;2.20;2.10;;;;;;;0.49;52.43;102588.95;103784;1281;95684;-72
2022/03/01 00:03:06;;;;;;;2.20;2.10;;;;;;;0.48;52.32;102583.11;103942;1281;139903;-73
2022/03/01 00:05:34;;;;;;;2.30;2.20;;;;;;;0.47;52.58;102584.29;104100;1281;100218;-73
2022/03/01 00:08:01;;;;;;;2.00;2.00;;;;;;;0.60;52.25;102580.89;104113;1281;109463;-74
2022/03/01 00:10:29;;;;;;;1.80;1.80;;;;;;;0.64;51.69;102575.85;103734;1280;139087;-73
2022/03/01 00:12:57;;;;;;;1.90;1.90;;;;;;;0.67;51.63;102573.00;103787;1282;95254;-74
2022/03/01 00:15:25;;;;;;;1.80;1.80;;;;;;;0.70;51.71;102570.67;103740;1282;139954;-73
2022/03/01 00:17:52;;;;;;;2.00;2.00;;;;;;;0.69;52.29;102563.64;104073;1281;100080;-74
2022/03/01 00:20:20;;;;;;;1.90;1.90;;;;;;;0.63;52.32;102566.70;104043;1281;109266;-74
2022/03/01 00:22:48;;;;;;;2.30;2.20;;;;;;;0.62;52.52;102568.04;103942;1281;140349;-74
2022/03/01 00:25:15;;;;;;;1.90;1.90;;;;;;;0.58;52.79;102567.82;103799;1281;314394;-74
2022/03/01 00:27:43;;;;;;;2.00;2.00;;;;;;;0.50;52.81;102565.73;103757;1281;139208;-74
2022/03/01 00:30:11;;;;;;;2.30;2.20;;;;;;;0.54;52.81;102566.77;104086;1281;99882;-75
2022/03/01 00:32:39;;;;;;;1.90;1.90;;;;;;;0.56;52.51;102564.79;103709;1281;140655;-75
2022/03/01 00:35:07;;;;;;;1.70;1.70;;;;;;;0.61;52.90;102569.58;104112;1281;95779;-74
2022/03/01 00:37:38;;;;;;;1.70;1.70;;;;;;;0.65;52.79;102569.45;103994;1280;95271;-74
2022/03/01 00:40:06;;;;;;;1.80;1.80;;;;;;;0.65;52.47;102566.66;103965;1281;138789;-74
2022/03/01 00:42:34;;;;;;;1.90;1.90;;;;;;;0.59;52.86;102563.34;103917;1281;99781;-73
2022/03/01 00:45:02;;;;;;;2.00;2.00;;;;;;;0.56;52.50;102563.89;103877;1281;140416;-74
2022/03/01 00:47:30;;;;;;;2.20;2.10;;;;;;;0.50;52.58;102559.44;103868;1281;95673;-74
2022/03/01 00:49:58;;;;;;;1.90;1.90;;;;;;;0.43;52.95;102560.14;103986;1281;95822;-75
2022/03/01 00:52:25;;;;;;;2.00;2.00;;;;;;;0.46;52.76;102557.12;103909;1280;139284;-73
2022/03/01 00:54:53;;;;;;;2.30;2.20;;;;;;;0.49;52.53;102556.20;103989;1280;99908;-74
2022/03/01 00:57:21;;;;;;;1.90;1.90;;;;;;;0.43;52.54;102555.74;103926;1281;139293;-74
2022/03/01 00:59:49;;;;;;;1.90;1.90;;;;;;;0.43;52.52;102554.20;103745;1281;95812;-74
2022/03/01 01:02:16;;;;;;;1.80;1.80;;;;;;;0.42;52.91;102556.41;103777;1280;95150;-74
2022/03/01 01:04:44;;;;;;;1.90;1.90;;;;;;;0.37;52.89;102553.14;104158;1281;139459;-74
2022/03/01 01:07:12;;;;;;;2.30;2.20;;;;;;;0.37;52.91;102553.34;103987;1281;99418;-73
2022/03/01 01:09:40;;;;;;;1.80;1.80;;;;;;;0.40;52.51;102551.95;103929;1281;139180;-74
2022/03/01 01:12:10;;;;;;;2.10;2.00;;;;;;;0.33;52.88;102548.97;103849;1281;95739;-74
2022/03/01 01:14:38;;;;;;;2.10;2.00;;;;;;;0.28;52.89;102551.34;103962;1281;139715;-75
2022/03/01 01:17:05;;;;;;;2.30;2.20;;;;;;;0.26;52.98;102550.17;104057;1280;110424;-73
2022/03/01 01:19:33;;;;;;;2.20;2.10;;;;;;;0.22;52.93;102550.66;103830;1281;100214;-73
2022/03/01 01:24:48;;;;;;;2.20;2.10;;;;;;;0.12;53.46;102543.73;103858;1281;95611;-73
2022/03/01 01:27:16;;;;;;;2.00;2.00;;;;;;;0.11;53.41;102548.21;103693;1281;139739;-74
2022/03/01 01:29:44;;;;;;;2.20;2.10;;;;;;;0.13;53.45;102547.27;103832;1281;110499;-74
2022/03/01 01:32:11;;;;;;;1.90;1.90;;;;;;;0.10;53.58;102545.18;104150;1281;99954;-74
2022/03/01 01:34:39;;;;;;;2.20;2.10;;;;;;;0.08;53.70;102546.11;103891;1281;140921;-74
2022/03/01 01:37:07;;;;;;;2.40;2.30;;;;;;;0.06;53.28;102546.86;103864;1281;95245;-76
2022/03/01 01:39:34;;;;;;;2.30;2.20;;;;;;;0.01;53.79;102543.66;103935;1281;142030;-75
2022/03/01 01:42:03;;;;;;;2.40;2.30;;;;;;;-0.08;53.82;102543.38;104007;1281;108646;-74
2022/03/01 01:44:31;;;;;;;2.00;2.00;;;;;;;-0.04;53.65;102536.78;104057;1280;99850;-74
2022/03/01 01:46:59;;;;;;;2.00;2.00;;;;;;;-0.04;53.42;102536.08;103812;1281;139063;-74
2022/03/01 01:49:27;;;;;;;2.00;2.00;;;;;;;-0.02;53.16;102541.05;104072;1281;95161;-74
2022/03/01 01:51:55;;;;;;;2.00;2.00;;;;;;;-0.10;54.08;102538.20;103916;1281;139371;-74
2022/03/01 01:54:23;;;;;;;2.30;2.20;;;;;;;-0.19;53.99;102545.41;104043;1280;109779;-74
2022/03/01 01:56:50;;;;;;;2.30;2.20;;;;;;;-0.21;54.14;102543.24;103888;1280;138743;-74
2022/03/01 01:59:18;;;;;;;1.90;1.90;;;;;;;-0.18;54.28;102547.09;103832;1281;109669;-75
2022/03/01 02:01:46;;;;;;;2.20;2.10;;;;;;;-0.24;54.42;102547.29;104136;1279;95328;-73
2022/03/01 02:04:14;;;;;;;2.30;2.20;;;;;;;-0.28;54.50;102547.21;103934;1281;138618;-74
2022/03/01 02:06:53;;;;;;;2.20;2.10;;;;;;;-0.34;54.57;102551.27;104405;1281;110013;-73
2022/03/01 02:09:21;;;;;;;2.70;2.60;;;;;;;-0.32;54.33;102548.95;103726;1281;139741;-76
2022/03/01 02:11:49;;;;;;;2.30;2.20;;;;;;;-0.43;54.62;102548.20;103700;1282;109238;-76
2022/03/01 02:14:17;;;;;;;2.50;2.40;;;;;;;-0.53;55.05;102547.52;103706;1282;95332;-73
2022/03/01 02:16:46;;;;;;;2.10;2.10;;;;;;;-0.50;55.26;102549.35;104095;1281;139659;-74
2022/03/01 02:19:14;;;;;;;2.30;2.20;;;;;;;-0.46;54.49;102541.02;103733;1281;109625;-74
2022/03/01 02:21:49;;;;;;;2.50;2.40;;;;;;;-0.43;54.32;102537.35;103973;1281;138608;-74
2022/03/01 02:24:18;;;;;;;2.40;2.30;;;;;;;-0.37;54.09;102536.85;103809;1281;109849;-74
2022/03/01 02:26:46;;;;;;;2.30;2.20;;;;;;;-0.35;53.86;102534.98;103866;1282;140481;-75
2022/03/01 02:29:14;;;;;;;2.50;2.40;;;;;;;-0.41;53.88;102532.73;104021;1281;95636;-74
2022/03/01 02:31:42;;;;;;;2.40;2.30;;;;;;;-0.45;53.91;102530.45;104043;1281;109944;-74
2022/03/01 02:34:09;;;;;;;2.30;2.20;;;;;;;-0.52;54.05;102528.52;103924;1281;137916;-75
2022/03/01 02:36:38;;;;;;;2.30;2.20;;;;;;;-0.53;54.47;102527.44;103730;1281;109003;-75
2022/03/01 02:39:06;;;;;;;2.20;2.10;;;;;;;-0.51;54.14;102530.14;103929;1280;141084;-74
2022/03/01 02:41:39;;;;;;;2.20;2.10;;;;;;;-0.52;54.25;102527.83;103985;1281;95704;-76
2022/03/01 02:44:07;;;;;;;2.30;2.20;;;;;;;-0.59;54.24;102526.23;104064;1281;110274;-74
2022/03/01 02:46:36;;;;;;;2.40;2.30;;;;;;;-0.64;54.66;102527.17;104063;1281;141864;-74
2022/03/01 02:49:06;;;;;;;2.50;2.40;;;;;;;-0.68;54.73;102524.71;103976;1280;109477;-76
2022/03/01 02:51:34;;;;;;;2.20;2.10;;;;;;;-0.64;54.89;102519.85;103941;1281;139835;-75
2022/03/01 02:54:03;;;;;;;2.20;2.10;;;;;;;-0.64;54.67;102521.09;104054;1281;95181;-75
2022/03/01 02:56:31;;;;;;;2.20;2.10;;;;;;;-0.64;55.01;102516.87;104199;1280;109861;-74
2022/03/01 02:58:59;;;;;;;2.60;2.50;;;;;;;-0.61;54.80;102517.71;103736;1282;144193;-74
2022/03/01 03:01:28;;;;;;;2.30;2.20;;;;;;;-0.62;54.32;102512.60;104105;1280;108932;-74
2022/03/01 03:03:56;;;;;;;2.40;2.30;;;;;;;-0.68;54.12;102507.61;103957;1280;139878;-74
2022/03/01 03:06:24;;;;;;;2.50;2.40;;;;;;;-0.76;54.51;102504.73;104072;1281;95157;-75
2022/03/01 03:08:52;;;;;;;2.50;2.40;;;;;;;-0.72;54.70;102503.36;103968;1281;141463;-74
2022/03/01 03:11:20;;;;;;;2.10;2.00;;;;;;;-0.72;54.82;102502.86;104130;1281;99975;-76
2022/03/01 03:13:48;;;;;;;2.50;2.40;;;;;;;-0.71;54.36;102499.77;104084;1281;107316;-77
2022/03/01 03:16:16;;;;;;;2.20;2.10;;;;;;;-0.71;54.68;102497.48;103888;1281;139598;-75
2022/03/01 03:18:45;;;;;;;2.80;2.70;;;;;;;-0.79;54.67;102494.77;104380;1279;96037;-75
2022/03/01 03:21:13;;;;;;;2.50;2.40;;;;;;;-0.90;55.14;102493.33;104205;1280;140399;-74
2022/03/01 03:23:41;;;;;;;2.30;2.20;;;;;;;-0.85;55.47;102493.09;104072;1281;99837;-74
2022/03/01 03:26:09;;;;;;;2.30;2.20;;;;;;;-0.86;55.53;102488.82;103841;1281;109398;-74
2022/03/01 03:28:37;;;;;;;2.40;2.30;;;;;;;-0.85;55.04;102493.27;103971;1280;140241;-73
2022/03/01 03:31:05;;;;;;;2.50;2.40;;;;;;;-0.83;54.68;102491.27;103854;1281;95768;-74
2022/03/01 03:33:33;;;;;;;2.40;2.30;;;;;;;-0.83;54.61;102493.32;103984;1279;140216;-75
2022/03/01 03:36:01;;;;;;;2.70;2.60;;;;;;;-0.87;54.93;102494.87;104011;1281;99876;-73
2022/03/01 03:38:29;;;;;;;2.50;2.40;;;;;;;-0.97;55.66;102487.34;104094;1281;109281;-75
2022/03/01 03:40:57;;;;;;;2.20;2.10;;;;;;;-0.93;55.23;102481.64;103657;1281;140602;-74
2022/03/01 03:43:25;;;;;;;2.30;2.20;;;;;;;-0.94;55.04;102480.24;103925;1281;95609;-74
2022/03/01 03:45:52;;;;;;;2.40;2.30;;;;;;;-0.99;55.27;102476.29;103922;1281;138300;-74
2022/03/01 03:48:20;;;;;;;2.50;2.40;;;;;;;-1.05;55.86;102474.95;103948;1281;100018;-74
2022/03/01 03:50:48;;;;;;;2.50;2.40;;;;;;;-1.04;55.74;102473.40;103868;1281;141566;-75
2022/03/01 03:53:16;;;;;;;2.40;2.30;;;;;;;-0.99;55.23;102470.70;104058;1281;95249;-75
2022/03/01 03:55:43;;;;;;;2.30;2.20;;;;;;;-1.01;54.97;102475.33;104050;1281;95775;-75
2022/03/01 03:58:11;;;;;;;2.30;2.20;;;;;;;-1.00;54.97;102476.76;103958;1281;139034;-73
2022/03/01 04:00:39;;;;;;;2.50;2.40;;;;;;;-1.05;55.26;102475.94;104017;1281;99961;-74
2022/03/01 04:03:07;;;;;;;2.60;2.50;;;;;;;-1.15;55.37;102477.86;103914;1281;138873;-74
2022/03/01 04:05:35;;;;;;;2.40;2.30;;;;;;;-1.19;55.98;102475.04;104015;1280;95914;-75
2022/03/01 04:08:03;;;;;;;2.20;2.10;;;;;;;-1.16;56.21;102477.77;103969;1281;95279;-72
2022/03/01 04:10:31;;;;;;;2.20;2.10;;;;;;;-1.16;56.19;102478.13;103923;1281;138750;-73
2022/03/01 04:13:00;;;;;;;2.50;2.40;;;;;;;-1.21;56.33;102483.81;104129;1281;99336;-75
2022/03/01 04:15:27;;;;;;;2.40;2.30;;;;;;;-1.27;56.35;102481.40;103842;1281;140562;-74
2022/03/01 04:17:55;;;;;;;2.40;2.30;;;;;;;-1.24;56.03;102480.17;104024;1281;95339;-74
2022/03/01 04:20:23;;;;;;;2.20;2.10;;;;;;;-1.20;55.64;102483.14;104064;1281;97708;-75
2022/03/01 04:22:51;;;;;;;2.40;2.30;;;;;;;-1.24;55.91;102474.77;103891;1281;139244;-73
2022/03/01 04:25:19;;;;;;;2.40;2.30;;;;;;;-1.29;56.16;102479.17;104063;1281;98848;-75
2022/03/01 04:27:46;;;;;;;2.50;2.40;;;;;;;-1.35;56.13;102472.41;103914;1281;140154;-74
2022/03/01 04:30:15;;;;;;;2.50;2.40;;;;;;;-1.38;56.19;102476.58;104040;1281;95221;-76
2022/03/01 04:32:45;;;;;;;2.80;2.70;;;;;;;-1.39;55.80;102473.77;103904;1281;141676;-74
2022/03/01 04:35:13;;;;;;;2.40;2.30;;;;;;;-1.39;55.97;102469.76;104017;1281;109699;-75
2022/03/01 04:37:42;;;;;;;2.50;2.40;;;;;;;-1.37;55.75;102471.39;104003;1281;99779;-75
2022/03/01 04:40:12;;;;;;;2.50;2.40;;;;;;;-1.37;55.61;102469.83;103993;1281;139982;-74
2022/03/01 04:42:40;;;;;;;2.50;2.40;;;;;;;-1.48;56.36;102470.10;104067;1281;95100;-76
2022/03/01 04:45:10;;;;;;;2.60;2.50;;;;;;;-1.54;56.65;102468.05;103854;1281;140059;-76
2022/03/01 04:47:39;;;;;;;2.70;2.60;;;;;;;-1.56;56.53;102469.70;104388;1281;110110;-76
2022/03/01 04:50:07;;;;;;;2.50;2.40;;;;;;;-1.55;56.58;102468.87;104001;1281;99351;-77
2022/03/01 04:52:35;;;;;;;2.70;2.60;;;;;;;-1.49;56.40;102465.14;103701;1281;141188;-74
2022/03/01 04:55:03;;;;;;;2.60;2.50;;;;;;;-1.47;55.87;102462.98;103819;1281;97106;-74
2022/03/01 04:57:31;;;;;;;2.70;2.60;;;;;;;-1.47;55.85;102467.70;103689;1281;139291;-75
2022/03/01 04:59:59;;;;;;;2.60;2.50;;;;;;;-1.55;56.36;102464.29;103987;1281;110952;-74
2022/03/01 05:02:30;;;;;;;2.30;2.20;;;;;;;-1.63;56.84;102463.69;103817;1281;99978;-75
2022/03/01 05:04:58;;;;;;;2.50;2.40;;;;;;;-1.67;56.81;102465.52;103884;1280;138996;-74
2022/03/01 05:07:25;;;;;;;2.80;2.70;;;;;;;-1.67;56.63;102464.13;103734;1284;95772;-74
2022/03/01 05:09:54;;;;;;;2.60;2.50;;;;;;;-1.69;56.75;102465.97;103642;1282;139861;-75
2022/03/01 05:12:23;;;;;;;2.60;2.50;;;;;;;-1.73;57.20;102462.93;103755;1284;110541;-74
2022/03/01 05:14:50;;;;;;;2.60;2.50;;;;;;;-1.75;57.10;102464.58;103651;1282;139635;-75
2022/03/01 05:17:18;;;;;;;2.30;2.20;;;;;;;-1.77;57.16;102460.95;104008;1280;108910;-74
2022/03/01 05:19:46;;;;;;;2.70;2.60;;;;;;;-1.76;57.32;102463.83;104017;1281;95252;-73
2022/03/01 05:22:14;;;;;;;2.60;2.50;;;;;;;-1.75;57.27;102459.52;104011;1281;139739;-74
2022/03/01 05:24:41;;;;;;;2.80;2.70;;;;;;;-1.81;57.26;102465.08;103976;1281;110172;-77
2022/03/01 05:27:09;;;;;;;2.50;2.40;;;;;;;-1.81;57.08;102466.82;103774;1282;141142;-75
2022/03/01 05:29:37;;;;;;;2.40;2.30;;;;;;;-1.79;57.40;102468.00;104070;1281;108347;-74
2022/03/01 05:32:06;;;;;;;2.60;2.50;;;;;;;-1.69;57.08;102464.19;104077;1281;98070;-75
2022/03/01 05:34:34;;;;;;;2.60;2.50;;;;;;;-1.71;57.09;102464.47;104000;1281;140148;-75
2022/03/01 05:37:01;;;;;;;2.60;2.50;;;;;;;-1.83;57.21;102460.27;103847;1281;110436;-75
2022/03/01 05:39:29;;;;;;;2.50;2.40;;;;;;;-1.83;57.48;102459.05;103876;1281;140306;-75
2022/03/01 05:41:57;;;;;;;2.50;2.40;;;;;;;-1.76;57.53;102458.60;104020;1281;107722;-75
2022/03/01 05:44:25;;;;;;;2.40;2.30;;;;;;;-1.69;57.43;102457.41;104024;1281;96388;-75
2022/03/01 05:46:52;;;;;;;2.50;2.40;;;;;;;-1.70;57.18;102455.11;103895;1281;138897;-75
2022/03/01 05:49:20;;;;;;;2.70;2.60;;;;;;;-1.72;57.01;102455.68;104083;1281;110389;-75
2022/03/01 05:51:48;;;;;;;2.50;2.40;;;;;;;-1.72;57.14;102462.49;104050;1281;140674;-75
2022/03/01 05:54:16;;;;;;;2.40;2.30;;;;;;;-1.65;57.12;102462.90;104036;1281;109264;-75
2022/03/01 05:56:44;;;;;;;2.40;2.30;;;;;;;-1.60;57.18;102458.42;104038;1279;139262;-75
2022/03/01 05:59:12;;;;;;;2.60;2.50;;;;;;;-1.52;56.79;102460.48;104117;1281;95234;-75
2022/03/01 06:01:40;;;;;;;2.70;2.60;;;;;;;-1.53;57.01;102461.83;104140;1281;110064;-76
2022/03/01 06:04:08;;;;;;;2.70;2.60;;;;;;;-1.53;57.02;102457.98;103987;1281;140800;-77
2022/03/01 06:06:35;;;;;;;2.40;2.30;;;;;;;-1.47;57.06;102456.38;104147;1281;108298;-75
2022/03/01 06:09:04;;;;;;;2.50;2.40;;;;;;;-1.46;57.22;102455.75;103978;1281;141462;-77
2022/03/01 06:11:32;;;;;;;2.60;2.50;;;;;;;-1.37;57.20;102455.53;104062;1281;95704;-75
2022/03/01 06:14:00;;;;;;;2.40;2.30;;;;;;;-1.26;56.47;102452.70;104057;1281;110218;-76
2022/03/01 06:16:28;;;;;;;2.40;2.30;;;;;;;-1.19;56.10;102450.80;103956;1281;140402;-76
2022/03/01 06:18:56;;;;;;;2.80;2.70;;;;;;;-1.20;56.30;102448.65;104082;1280;107709;-75
2022/03/01 06:21:24;;;;;;;2.40;2.30;;;;;;;-1.25;56.94;102451.52;103959;1281;141257;-74
2022/03/01 06:23:51;;;;;;;2.40;2.30;;;;;;;-1.20;57.53;102452.30;104284;1281;96029;-74
2022/03/01 06:26:19;;;;;;;2.40;2.30;;;;;;;-1.11;57.23;102452.13;104190;1280;109013;-75
2022/03/01 06:28:48;;;;;;;2.30;2.20;;;;;;;-1.01;56.98;102449.16;104133;1279;142037;-74
2022/03/01 06:31:15;;;;;;;2.40;2.30;;;;;;;-0.93;56.79;102443.62;103858;1280;108055;-75
2022/03/01 06:33:43;;;;;;;2.50;2.40;;;;;;;-0.87;56.58;102449.23;104072;1279;139732;-74
2022/03/01 06:36:11;;;;;;;2.20;2.10;;;;;;;-0.75;56.58;102446.17;104098;1279;95720;-76
2022/03/01 06:38:39;;;;;;;2.30;2.20;;;;;;;-0.66;56.70;102449.45;104024;1279;140506;-75
2022/03/01 06:41:07;;;;;;;2.40;2.30;;;;;;;-0.64;57.14;102453.91;104135;1280;98332;-74
2022/03/01 06:43:35;;;;;;;2.30;2.20;;;;;;;-0.53;56.68;102452.54;103901;1281;109187;-75
2022/03/01 06:46:02;;;;;;;2.40;2.30;;;;;;;-0.45;56.44;102447.36;104027;1281;141007;-75
2022/03/01 06:48:30;;;;;;;2.10;2.00;;;;;;;-0.38;56.33;102449.85;104179;1280;95163;-75
2022/03/01 06:50:58;;;;;;;2.00;2.00;;;;;;;-0.23;56.49;102452.52;103995;1281;139401;-75
2022/03/01 06:53:26;;;;;;;2.20;2.10;;;;;;;-0.10;56.32;102449.88;103995;1281;97673;-74
2022/03/01 06:55:54;;;;;;;2.20;2.10;;;;;;;0.02;55.91;102446.45;104151;1281;108430;-74
2022/03/01 06:58:22;;;;;;;2.10;2.00;;;;;;;0.11;55.63;102444.10;103919;1281;139619;-75
2022/03/01 07:00:49;;;;;;;2.00;2.00;;;;;;;0.19;55.67;102441.88;104120;1281;95236;-74
2022/03/01 07:03:18;;;;;;;1.90;1.90;;;;;;;0.23;55.84;102442.94;103980;1281;140635;-75
2022/03/01 07:05:46;;;;;;;1.80;1.80;;;;;;;0.31;55.84;102441.74;104093;1281;100028;-75
2022/03/01 07:08:13;;;;;;;1.90;1.90;;;;;;;0.43;55.75;102439.91;103996;1281;110016;-74
2022/03/01 07:10:41;;;;;;;1.80;1.80;;;;;;;0.55;55.41;102440.09;103903;1281;138169;-74
2022/03/01 07:13:09;;;;;;;2.00;2.00;;;;;;;0.61;55.37;102437.27;104030;1281;95644;-75
2022/03/01 07:15:38;;;;;;;2.20;2.10;;;;;;;0.62;54.79;102434.31;104087;1281;140131;-74
2022/03/01 07:18:05;;;;;;;2.20;2.10;;;;;;;0.58;55.15;102434.66;104048;1281;99838;-75
2022/03/01 07:20:34;;;;;;;1.90;1.90;;;;;;;0.64;55.14;102436.52;104098;1280;109355;-74
2022/03/01 07:23:04;;;;;;;2.00;2.00;;;;;;;0.75;54.72;102427.95;103870;1281;139484;-75
2022/03/01 07:25:31;;;;;;;2.20;2.10;;;;;;;0.87;54.33;102427.29;103900;1281;95307;-75
2022/03/01 07:27:59;;;;;;;1.80;1.80;;;;;;;0.98;54.72;102425.13;103923;1281;139719;-74
2022/03/01 07:30:27;;;;;;;2.40;2.30;;;;;;;1.02;54.05;102424.81;104014;1281;99362;-76
2022/03/01 07:32:57;;;;;;;1.70;1.70;;;;;;;1.13;54.00;102423.89;103916;1281;139171;-75
2022/03/01 07:35:25;;;;;;;1.90;1.90;;;;;;;1.22;53.46;102427.62;104057;1281;95245;-75
2022/03/01 07:37:54;;;;;;;1.90;1.90;;;;;;;1.20;53.36;102420.16;104034;1279;95250;-75
2022/03/01 07:40:23;;;;;;;1.70;1.70;;;;;;;1.20;53.51;102423.86;103948;1280;139757;-75
2022/03/01 07:42:52;;;;;;;1.90;1.90;;;;;;;1.27;53.29;102422.60;104117;1281;99553;-76
2022/03/01 07:45:20;;;;;;;1.70;1.70;;;;;;;1.30;52.91;102422.73;103898;1281;139311;-76
2022/03/01 07:47:51;;;;;;;1.80;1.80;;;;;;;1.38;52.47;102421.50;104071;1281;95544;-73
2022/03/01 07:50:20;;;;;;;1.80;1.80;;;;;;;1.47;52.13;102424.55;104062;1281;95166;-74
2022/03/01 07:52:51;;;;;;;1.70;1.70;;;;;;;1.53;52.12;102422.15;103942;1281;139079;-73
2022/03/01 07:55:19;;;;;;;1.50;1.50;;;;;;;1.59;51.80;102424.51;104023;1281;100442;-73
2022/03/01 07:57:47;;;;;;;1.60;1.60;;;;;;;1.66;50.67;102420.42;103929;1281;139049;-73
2022/03/01 08:00:15;;;;;;;1.60;1.60;;;;;;;1.72;50.63;102422.05;104072;1281;95667;-74
2022/03/01 08:02:43;;;;;;;1.70;1.70;;;;;;;1.78;50.22;102416.92;104009;1281;139502;-74
2022/03/01 08:05:11;;;;;;;1.70;1.70;;;;;;;1.90;50.04;102415.47;104198;1281;110278;-73
2022/03/01 08:07:49;;;;;;;1.70;1.70;;;;;;;2.08;48.71;102414.98;104154;1281;98482;-74
2022/03/01 08:10:18;;;;;;;1.60;1.60;;;;;;;2.17;48.41;102414.13;104149;1281;139956;-73
2022/03/01 08:12:45;;;;;;;1.50;1.50;;;;;;;2.26;48.10;102410.30;104190;1281;95395;-75
2022/03/01 08:15:13;;;;;;;1.50;1.50;;;;;;;2.28;47.22;102412.84;103967;1281;140438;-74
2022/03/01 08:17:50;;;;;;;1.60;1.60;;;;;;;2.29;46.62;102413.23;104091;1281;109722;-74
2022/03/01 08:20:18;;;;;;;1.70;1.70;;;;;;;2.33;46.20;102407.95;104110;1279;98354;-73
2022/03/01 08:22:46;;;;;;;1.50;1.50;;;;;;;2.35;46.12;102404.02;103896;1281;139240;-75
2022/03/01 08:25:14;;;;;;;1.60;1.60;;;;;;;2.46;46.25;102408.48;103922;1281;95231;-73
2022/03/01 08:27:43;;;;;;;1.60;1.60;;;;;;;2.55;45.54;102408.98;103867;1281;139377;-74
2022/03/01 08:30:11;;;;;;;1.50;1.50;;;;;;;2.64;45.30;102407.23;104122;1281;110634;-74
2022/03/01 08:32:39;;;;;;;1.50;1.50;;;;;;;2.72;43.08;102409.80;104193;1281;99605;-74
2022/03/01 08:35:07;;;;;;;1.50;1.50;;;;;;;2.81;43.33;102410.69;104163;1279;138866;-74
2022/03/01 08:37:35;;;;;;;1.40;1.40;;;;;;;2.89;43.96;102410.47;104109;1280;95682;-74
2022/03/01 08:40:04;;;;;;;1.40;1.40;;;;;;;2.99;43.76;102408.02;103992;1281;138844;-74
2022/03/01 08:42:32;;;;;;;1.50;1.50;;;;;;;3.04;43.64;102405.39;103922;1281;110349;-74
2022/03/01 08:45:00;;;;;;;1.50;1.50;;;;;;;3.12;44.05;102404.99;103828;1281;140265;-75
2022/03/01 08:47:31;;;;;;;1.40;1.40;;;;;;;3.19;43.53;102410.52;103983;1281;110343;-74
2022/03/01 08:50:00;;;;;;;1.40;1.40;;;;;;;3.23;43.39;102409.61;103900;1281;95266;-75
2022/03/01 08:52:49;;;;;;;1.40;1.40;;;;;;;3.31;43.09;102407.96;103844;1281;138945;-75
2022/03/01 08:55:17;;;;;;;1.40;1.40;;;;;;;3.38;41.54;102408.02;103978;1281;110382;-75
2022/03/01 08:57:44;;;;;;;1.40;1.40;;;;;;;3.45;42.66;102405.11;103857;1281;139280;-75
2022/03/01 09:00:13;;;;;;;1.40;1.40;;;;;;;3.54;42.73;102402.44;103917;1281;108032;-74
2022/03/01 09:02:41;;;;;;;1.30;1.30;;;;;;;3.69;42.84;102403.48;103993;1281;95353;-74
2022/03/01 09:05:09;;;;;;;1.30;1.30;;;;;;;3.79;42.07;102398.23;103949;1281;138899;-74
2022/03/01 09:07:37;;;;;;;1.20;1.20;;;;;;;3.86;40.93;102393.52;103989;1281;110251;-74
2022/03/01 09:10:06;;;;;;;1.30;1.30;;;;;;;3.99;41.12;102396.07;103867;1281;139706;-75
2022/03/01 09:12:34;;;;;;;1.70;1.70;;;;;;;4.15;40.81;102391.84;104027;1281;108500;-75
2022/03/01 09:15:03;;;;;;;1.60;1.60;;;;;;;5.28;40.66;102387.20;103756;1281;139161;-75
2022/03/01 09:17:31;;;;;;;1.10;1.10;;;;;;;8.13;36.67;102379.92;104014;1281;95354;-74
2022/03/01 09:19:59;;;;;;;0.60;0.60;;;;;;;10.47;33.64;102373.88;104043;1281;110189;-75
2022/03/01 09:22:28;;;;;;;0.50;0.50;;;;;;;11.16;32.10;102374.95;103904;1280;139652;-75
2022/03/01 09:24:56;;;;;;;0.50;0.40;;;;;;;10.70;31.27;102369.27;104012;1281;109005;-75
2022/03/01 09:27:24;;;;;;;0.50;0.50;;;;;;;10.19;32.23;102365.91;103849;1281;139776;-77
2022/03/01 09:29:52;;;;;;;0.50;0.40;;;;;;;9.82;32.51;102361.00;103855;1282;96023;-74
2022/03/01 09:32:19;;;;;;;0.50;0.50;;;;;;;9.53;32.79;102364.30;104008;1281;109831;-74
2022/03/01 09:34:48;;;;;;;0.70;0.70;;;;;;;9.31;32.39;102366.55;103902;1281;138465;-75
2022/03/01 09:37:16;;;;;;;0.80;0.80;;;;;;;9.55;32.20;102363.77;103971;1281;109448;-76
2022/03/01 09:39:43;;;;;;;0.70;0.70;;;;;;;11.07;30.71;102361.71;103794;1282;141004;-75
2022/03/01 09:42:12;;;;;;;0.60;0.60;;;;;;;12.89;28.47;102353.11;103930;1282;95232;-74
2022/03/01 09:44:40;;;;;;;0.50;0.50;;;;;;;14.63;26.72;102347.81;104014;1280;110404;-73
2022/03/01 09:47:08;;;;;;;0.40;0.30;;;;;;;16.27;25.05;102342.84;103819;1282;140825;-74
2022/03/01 09:49:36;;;;;;;0.40;0.30;;;;;;;17.80;24.01;102342.04;103768;1283;109132;-76
2022/03/01 09:52:04;;;;;;;0.40;0.20;;;;;;;19.00;21.63;102337.30;104014;1281;139722;-75
2022/03/01 09:54:31;;;;;;;0.40;0.20;;;;;;;20.01;20.99;102327.20;104084;1281;95228;-75
2022/03/01 09:56:59;;;;;;;0.40;0.20;;;;;;;21.15;19.35;102322.44;103874;1281;140960;-74
2022/03/01 09:59:27;;;;;;;0.40;0.20;;;;;;;21.95;18.33;102319.33;103877;1282;99868;-75
2022/03/01 10:01:55;;;;;;;0.40;0.10;;;;;;;22.71;17.83;102317.20;104025;1281;109610;-74
2022/03/01 10:04:25;;;;;;;0.40;0.10;;;;;;;23.02;16.78;102315.57;103923;1281;139280;-75
2022/03/01 10:06:53;;;;;;;0.40;0.10;;;;;;;22.83;17.30;102313.04;103842;1282;95189;-75
2022/03/01 10:09:24;;;;;;;0.40;0.10;;;;;;;23.72;17.17;102308.54;103967;1281;139632;-75
2022/03/01 10:11:52;;;;;;;0.40;0.10;;;;;;;24.47;15.26;102304.41;104110;1281;99978;-75
2022/03/01 10:14:31;;;;;;;0.40;0.10;;;;;;;24.98;15.45;102299.63;104047;1281;108830;-74
2022/03/01 10:16:59;;;;;;;0.40;0.10;;;;;;;25.59;14.97;102296.30;103845;1281;138918;-75
2022/03/01 10:19:30;;;;;;;0.40;0.10;;;;;;;25.99;14.77;102294.77;104070;1281;95262;-75
2022/03/01 10:22:01;;;;;;;0.40;0.00;;;;;;;26.39;14.40;102289.05;103932;1281;140020;-75
2022/03/01 10:24:30;;;;;;;0.40;0.00;;;;;;;26.83;13.98;102282.09;104056;1281;100112;-75
2022/03/01 10:27:03;;;;;;;0.40;0.10;;;;;;;27.07;13.74;102274.10;103886;1281;139918;-76
2022/03/01 10:29:47;;;;;;;0.40;0.10;;;;;;;27.71;13.36;102264.51;103932;1281;95247;-75
2022/03/01 10:32:15;;;;;;;0.40;0.00;;;;;;;28.20;12.90;102257.63;104113;1281;95344;-76
2022/03/01 10:35:06;;;;;;;0.40;0.00;;;;;;;28.41;12.71;102258.00;103927;1281;139724;-76
2022/03/01 10:37:36;;;;;;;0.40;0.10;;;;;;;28.74;12.52;102253.59;103870;1282;99911;-76
2022/03/01 10:40:12;;;;;;;0.40;0.00;;;;;;;28.89;12.08;102250.11;103863;1281;139446;-76
2022/03/01 10:42:41;;;;;;;0.40;0.00;;;;;;;28.98;11.89;102248.11;104021;1281;95243;-76
2022/03/01 10:45:10;;;;;;;0.40;0.00;;;;;;;29.04;11.29;102245.89;104060;1279;139447;-76
2022/03/01 10:47:39;;;;;;;0.40;0.00;;;;;;;27.76;11.41;102245.74;104166;1279;109586;-76
2022/03/01 10:50:10;;;;;;;0.40;0.00;;;;;;;24.87;13.43;102249.63;104191;1279;99854;-75
2022/03/01 10:52:39;;;;;;;0.40;0.00;;;;;;;22.83;14.47;102252.14;104170;1280;140365;-76
2022/03/01 10:55:22;;;;;;;0.40;0.00;;;;;;;21.14;15.26;102249.45;103954;1281;95034;-75
2022/03/01 10:58:19;;;;;;;0.40;0.10;;;;;;;19.17;16.60;102253.04;104104;1279;139738;-76
2022/03/01 11:00:47;;;;;;;0.40;0.10;;;;;;;17.74;17.93;102254.34;103644;1281;110219;-76
2022/03/01 11:03:15;;;;;;;0.40;0.10;;;;;;;16.40;18.85;102250.80;104005;1280;140456;-76
2022/03/01 11:05:44;;;;;;;0.40;0.10;;;;;;;15.49;19.98;102251.08;104161;1279;109128;-75
2022/03/01 11:08:35;;;;;;;0.40;0.20;;;;;;;14.68;21.12;102249.63;103993;1281;95759;-75
2022/03/01 11:11:05;;;;;;;0.40;0.20;;;;;;;14.04;21.23;102242.00;103875;1281;139940;-77
2022/03/01 11:13:39;;;;;;;0.40;0.20;;;;;;;13.28;22.11;102239.32;104102;1281;110404;-76
2022/03/01 11:16:41;;;;;;;0.40;0.20;;;;;;;12.71;22.65;102236.13;104328;1280;138560;-75
2022/03/01 11:19:15;;;;;;;0.40;0.30;;;;;;;11.98;23.63;102235.17;104138;1281;109802;-76
2022/03/01 11:21:47;;;;;;;0.40;0.30;;;;;;;11.51;23.85;102231.12;104015;1280;139868;-75
2022/03/01 11:24:17;;;;;;;0.40;0.30;;;;;;;11.03;24.28;102232.17;104345;1281;95605;-74